This is the latest recevied weather packets stored in our database for station/object W3EJE-13. If no packets are shown the sender has not sent any weather packets the latest 1 day(s).
| Time | Temp. | Humidity | Pressure | Rain* | Wind** | Luminosity | Snow |
|---|---|---|---|---|---|---|---|
| 1778027615 | 18.33° C | 60% | 1011.4 hPa | 0 mm | 0.45 m/s, 254° | 0 W/m² | - |
| 1778027312 | 18.33° C | 60% | 1011.4 hPa | 0 mm | 0 m/s | 0 W/m² | - |
| 1778027008 | 18.89° C | 59% | 1011.3 hPa | 0 mm | 0.45 m/s, 255° | 0 W/m² | - |
| 1778026704 | 18.89° C | 59% | 1011.3 hPa | 0 mm | 0.89 m/s, 268° | 0 W/m² | - |
| 1778026402 | 18.89° C | 57% | 1011.4 hPa | 0 mm | 0.89 m/s, 252° | 1 W/m² | - |
| 1778026098 | 18.89° C | 57% | 1011.3 hPa | 0 mm | 0.89 m/s, 259° | 2 W/m² | - |
| 1778025796 | 19.44° C | 57% | 1011.3 hPa | 0 mm | 1.34 m/s, 258° | 4 W/m² | - |
| 1778025493 | 19.44° C | 57% | 1011 hPa | 0 mm | 0 m/s | 6 W/m² | - |
| 1778025190 | 20° C | 56% | 1011.3 hPa | 0 mm | 1.34 m/s, 249° | 9 W/m² | - |
| 1778024887 | 20° C | 57% | 1011.1 hPa | 0 mm | 1.34 m/s, 274° | 11 W/m² | - |
| 1778024585 | 20° C | 55% | 1011.1 hPa | 0 mm | 1.79 m/s, 254° | 17 W/m² | - |
| 1778024281 | 20° C | 55% | 1011.1 hPa | 0 mm | 1.34 m/s, 288° | 20 W/m² | - |
| 1778023979 | 20° C | 54% | 1011.3 hPa | 0 mm | 1.79 m/s, 276° | 19 W/m² | - |
| 1778023676 | 20° C | 55% | 1011.1 hPa | 0 mm | 1.34 m/s, 240° | 23 W/m² | - |
| 1778023373 | 20.56° C | 54% | 1011.2 hPa | 0 mm | 2.24 m/s, 284° | 24 W/m² | - |
| 1778023070 | 20.56° C | 52% | 1011.3 hPa | 0 mm | 1.79 m/s, 264° | 25 W/m² | - |
| 1778022769 | 20.56° C | 53% | 1011.2 hPa | 0 mm | 2.68 m/s, 284° | 32 W/m² | - |
| 1778022467 | 20.56° C | 52% | 1011.1 hPa | 0 mm | 1.34 m/s, 230° | 39 W/m² | - |
| 1778022163 | 20.56° C | 51% | 1011 hPa | 0 mm | 1.79 m/s, 240° | 43 W/m² | - |
| 1778021859 | 20.56° C | 52% | 1011.1 hPa | 0 mm | 1.79 m/s, 340° | 42 W/m² | - |
| 1778021557 | 20.56° C | 51% | 1011.2 hPa | 0 mm | 1.79 m/s, 293° | 43 W/m² | - |
| 1778021252 | 20.56° C | 52% | 1011.4 hPa | 0 mm | 2.68 m/s, 285° | 67 W/m² | - |
| 1778020950 | 21.11° C | 53% | 1011.2 hPa | 0 mm | 1.34 m/s, 249° | 92 W/m² | - |
| 1778020647 | 21.11° C | 49% | 1011.5 hPa | 0 mm | 1.79 m/s, 270° | 102 W/m² | - |
| 1778020343 | 21.11° C | 51% | 1011.4 hPa | 0 mm | 2.24 m/s, 324° | 101 W/m² | - |
* Rain latest hour (hover to see other rain measurements)
** Current wind speed in m/s (hover to see current wind gust speed)